sensor_id;sensor_type;location;lat;lon;timestamp;P1;durP1;ratioP1;P2;durP2;ratioP2
29200;SDS011;16244;51.956;12.980;2023-08-31T00:00:13;22.47;;;20.77;;
29200;SDS011;16244;51.956;12.980;2023-08-31T00:02:41;22.97;;;21.27;;
29200;SDS011;16244;51.956;12.980;2023-08-31T00:05:09;22.60;;;20.60;;
29200;SDS011;16244;51.956;12.980;2023-08-31T00:07:36;20.97;;;18.97;;
29200;SDS011;16244;51.956;12.980;2023-08-31T00:10:04;19.17;;;17.67;;
29200;SDS011;16244;51.956;12.980;2023-08-31T00:12:35;14.23;;;12.73;;
29200;SDS011;16244;51.956;12.980;2023-08-31T00:15:05;22.20;;;20.57;;
29200;SDS011;16244;51.956;12.980;2023-08-31T00:17:35;15.33;;;14.10;;
29200;SDS011;16244;51.956;12.980;2023-08-31T00:20:04;15.80;;;14.53;;
29200;SDS011;16244;51.956;12.980;2023-08-31T00:22:33;25.13;;;22.93;;
29200;SDS011;16244;51.956;12.980;2023-08-31T00:25:00;27.87;;;25.43;;
29200;SDS011;16244;51.956;12.980;2023-08-31T00:27:28;21.70;;;20.00;;
29200;SDS011;16244;51.956;12.980;2023-08-31T00:29:56;12.73;;;11.70;;
29200;SDS011;16244;51.956;12.980;2023-08-31T00:32:25;19.90;;;17.80;;
29200;SDS011;16244;51.956;12.980;2023-08-31T00:34:57;24.83;;;22.73;;
29200;SDS011;16244;51.956;12.980;2023-08-31T00:37:30;16.53;;;15.23;;
29200;SDS011;16244;51.956;12.980;2023-08-31T00:40:02;18.43;;;16.53;;
29200;SDS011;16244;51.956;12.980;2023-08-31T00:42:32;21.43;;;17.70;;
29200;SDS011;16244;51.956;12.980;2023-08-31T00:45:00;20.90;;;19.20;;
29200;SDS011;16244;51.956;12.980;2023-08-31T00:47:29;17.17;;;15.93;;
29200;SDS011;16244;51.956;12.980;2023-08-31T00:49:57;20.33;;;17.23;;
29200;SDS011;16244;51.956;12.980;2023-08-31T00:52:25;20.80;;;19.30;;
29200;SDS011;16244;51.956;12.980;2023-08-31T00:54:53;33.03;;;29.93;;
29200;SDS011;16244;51.956;12.980;2023-08-31T00:57:21;13.60;;;12.23;;
29200;SDS011;16244;51.956;12.980;2023-08-31T00:59:48;17.97;;;16.47;;
29200;SDS011;16244;51.956;12.980;2023-08-31T01:02:17;19.83;;;18.07;;
29200;SDS011;16244;51.956;12.980;2023-08-31T01:04:52;20.77;;;19.07;;
29200;SDS011;16244;51.956;12.980;2023-08-31T01:07:26;21.93;;;19.83;;
29200;SDS011;16244;51.956;12.980;2023-08-31T01:10:02;18.07;;;16.37;;
29200;SDS011;16244;51.956;12.980;2023-08-31T01:12:40;25.07;;;22.73;;
29200;SDS011;16244;51.956;12.980;2023-08-31T01:15:13;34.33;;;31.37;;
29200;SDS011;16244;51.956;12.980;2023-08-31T01:17:42;22.80;;;20.50;;
29200;SDS011;16244;51.956;12.980;2023-08-31T01:20:16;25.97;;;23.93;;
29200;SDS011;16244;51.956;12.980;2023-08-31T01:22:47;23.17;;;21.17;;
29200;SDS011;16244;51.956;12.980;2023-08-31T01:25:23;22.83;;;20.80;;
29200;SDS011;16244;51.956;12.980;2023-08-31T01:27:52;22.67;;;20.67;;
29200;SDS011;16244;51.956;12.980;2023-08-31T01:30:20;27.43;;;25.17;;
29200;SDS011;16244;51.956;12.980;2023-08-31T01:32:47;28.40;;;25.90;;
29200;SDS011;16244;51.956;12.980;2023-08-31T01:35:16;30.70;;;27.77;;
29200;SDS011;16244;51.956;12.980;2023-08-31T01:37:45;24.90;;;22.73;;
29200;SDS011;16244;51.956;12.980;2023-08-31T01:40:18;27.00;;;24.58;;
29200;SDS011;16244;51.956;12.980;2023-08-31T01:42:51;36.97;;;33.63;;
29200;SDS011;16244;51.956;12.980;2023-08-31T01:45:20;18.63;;;17.40;;
29200;SDS011;16244;51.956;12.980;2023-08-31T01:47:49;31.73;;;28.33;;
29200;SDS011;16244;51.956;12.980;2023-08-31T01:50:17;30.00;;;27.70;;
29200;SDS011;16244;51.956;12.980;2023-08-31T01:52:44;26.93;;;24.30;;
29200;SDS011;16244;51.956;12.980;2023-08-31T01:55:12;20.07;;;18.03;;
29200;SDS011;16244;51.956;12.980;2023-08-31T01:57:41;17.37;;;16.00;;
29200;SDS011;16244;51.956;12.980;2023-08-31T02:00:11;25.83;;;23.43;;
29200;SDS011;16244;51.956;12.980;2023-08-31T02:02:39;19.13;;;17.13;;
29200;SDS011;16244;51.956;12.980;2023-08-31T02:05:06;22.03;;;20.03;;
29200;SDS011;16244;51.956;12.980;2023-08-31T02:07:35;24.87;;;22.97;;
29200;SDS011;16244;51.956;12.980;2023-08-31T02:10:03;19.57;;;17.97;;
29200;SDS011;16244;51.956;12.980;2023-08-31T02:12:32;17.47;;;16.00;;
29200;SDS011;16244;51.956;12.980;2023-08-31T02:14:59;18.63;;;16.93;;
29200;SDS011;16244;51.956;12.980;2023-08-31T02:17:28;22.20;;;19.97;;
29200;SDS011;16244;51.956;12.980;2023-08-31T02:19:55;23.80;;;21.63;;
29200;SDS011;16244;51.956;12.980;2023-08-31T02:22:23;19.67;;;17.87;;
29200;SDS011;16244;51.956;12.980;2023-08-31T02:24:51;23.93;;;21.73;;
29200;SDS011;16244;51.956;12.980;2023-08-31T02:27:18;18.93;;;17.60;;
29200;SDS011;16244;51.956;12.980;2023-08-31T02:29:45;27.37;;;25.30;;
29200;SDS011;16244;51.956;12.980;2023-08-31T02:32:13;25.53;;;19.70;;
29200;SDS011;16244;51.956;12.980;2023-08-31T02:34:42;22.20;;;20.23;;
29200;SDS011;16244;51.956;12.980;2023-08-31T02:37:09;32.23;;;29.53;;
29200;SDS011;16244;51.956;12.980;2023-08-31T02:39:37;22.17;;;20.33;;
29200;SDS011;16244;51.956;12.980;2023-08-31T02:42:05;19.60;;;17.70;;
29200;SDS011;16244;51.956;12.980;2023-08-31T02:44:33;26.97;;;24.30;;
29200;SDS011;16244;51.956;12.980;2023-08-31T02:47:01;28.30;;;26.07;;
29200;SDS011;16244;51.956;12.980;2023-08-31T02:49:28;24.30;;;21.80;;
29200;SDS011;16244;51.956;12.980;2023-08-31T02:51:57;25.13;;;22.50;;
29200;SDS011;16244;51.956;12.980;2023-08-31T02:54:25;25.33;;;22.67;;
29200;SDS011;16244;51.956;12.980;2023-08-31T02:56:52;24.17;;;21.70;;
29200;SDS011;16244;51.956;12.980;2023-08-31T02:59:19;20.90;;;19.20;;
29200;SDS011;16244;51.956;12.980;2023-08-31T03:01:48;21.23;;;19.23;;
29200;SDS011;16244;51.956;12.980;2023-08-31T03:04:15;20.37;;;18.97;;
29200;SDS011;16244;51.956;12.980;2023-08-31T03:06:43;22.60;;;20.40;;
29200;SDS011;16244;51.956;12.980;2023-08-31T03:09:12;29.30;;;26.83;;
29200;SDS011;16244;51.956;12.980;2023-08-31T03:11:40;26.13;;;23.53;;
29200;SDS011;16244;51.956;12.980;2023-08-31T03:14:07;36.10;;;32.80;;
29200;SDS011;16244;51.956;12.980;2023-08-31T03:16:35;25.73;;;23.17;;
29200;SDS011;16244;51.956;12.980;2023-08-31T03:19:03;24.97;;;22.87;;
29200;SDS011;16244;51.956;12.980;2023-08-31T03:21:30;27.73;;;24.97;;
29200;SDS011;16244;51.956;12.980;2023-08-31T03:23:59;19.73;;;18.33;;
29200;SDS011;16244;51.956;12.980;2023-08-31T03:26:27;21.90;;;19.73;;
29200;SDS011;16244;51.956;12.980;2023-08-31T03:28:56;22.67;;;20.87;;
29200;SDS011;16244;51.956;12.980;2023-08-31T03:31:23;30.20;;;27.90;;
29200;SDS011;16244;51.956;12.980;2023-08-31T03:33:51;26.60;;;23.77;;
29200;SDS011;16244;51.956;12.980;2023-08-31T03:36:18;25.87;;;19.27;;
29200;SDS011;16244;51.956;12.980;2023-08-31T03:38:46;23.53;;;21.33;;
29200;SDS011;16244;51.956;12.980;2023-08-31T03:41:13;23.80;;;21.67;;
29200;SDS011;16244;51.956;12.980;2023-08-31T03:43:42;23.83;;;21.63;;
29200;SDS011;16244;51.956;12.980;2023-08-31T03:46:09;25.50;;;23.30;;
29200;SDS011;16244;51.956;12.980;2023-08-31T03:48:37;16.90;;;15.67;;
29200;SDS011;16244;51.956;12.980;2023-08-31T03:51:04;33.77;;;31.43;;
29200;SDS011;16244;51.956;12.980;2023-08-31T03:53:31;22.20;;;20.47;;
29200;SDS011;16244;51.956;12.980;2023-08-31T03:55:59;30.20;;;27.53;;
29200;SDS011;16244;51.956;12.980;2023-08-31T03:58:26;23.40;;;21.27;;
29200;SDS011;16244;51.956;12.980;2023-08-31T04:00:55;27.40;;;25.07;;
29200;SDS011;16244;51.956;12.980;2023-08-31T04:03:22;24.77;;;22.47;;
29200;SDS011;16244;51.956;12.980;2023-08-31T04:05:53;29.07;;;26.87;;
29200;SDS011;16244;51.956;12.980;2023-08-31T04:08:21;22.10;;;19.80;;
29200;SDS011;16244;51.956;12.980;2023-08-31T04:10:48;39.83;;;36.33;;
29200;SDS011;16244;51.956;12.980;2023-08-31T04:13:16;18.30;;;16.67;;
29200;SDS011;16244;51.956;12.980;2023-08-31T04:15:43;34.07;;;30.97;;
29200;SDS011;16244;51.956;12.980;2023-08-31T04:18:12;28.77;;;25.33;;
29200;SDS011;16244;51.956;12.980;2023-08-31T04:20:48;23.83;;;22.03;;
29200;SDS011;16244;51.956;12.980;2023-08-31T04:23:17;28.20;;;25.77;;
29200;SDS011;16244;51.956;12.980;2023-08-31T04:25:45;34.20;;;31.33;;
29200;SDS011;16244;51.956;12.980;2023-08-31T04:28:13;36.17;;;33.17;;
29200;SDS011;16244;51.956;12.980;2023-08-31T04:30:40;25.70;;;23.33;;
29200;SDS011;16244;51.956;12.980;2023-08-31T04:33:08;27.60;;;24.60;;
29200;SDS011;16244;51.956;12.980;2023-08-31T04:35:37;27.40;;;25.07;;
29200;SDS011;16244;51.956;12.980;2023-08-31T04:38:05;21.27;;;19.67;;
29200;SDS011;16244;51.956;12.980;2023-08-31T04:40:32;29.97;;;23.20;;
29200;SDS011;16244;51.956;12.980;2023-08-31T04:43:00;28.17;;;25.53;;
29200;SDS011;16244;51.956;12.980;2023-08-31T04:45:27;30.97;;;27.37;;
29200;SDS011;16244;51.956;12.980;2023-08-31T04:47:55;25.97;;;23.20;;
29200;SDS011;16244;51.956;12.980;2023-08-31T04:50:22;28.13;;;25.17;;
29200;SDS011;16244;51.956;12.980;2023-08-31T04:52:51;35.67;;;32.07;;
29200;SDS011;16244;51.956;12.980;2023-08-31T04:55:20;34.47;;;30.97;;
29200;SDS011;16244;51.956;12.980;2023-08-31T04:57:48;30.53;;;27.37;;
29200;SDS011;16244;51.956;12.980;2023-08-31T05:00:16;31.93;;;28.60;;
29200;SDS011;16244;51.956;12.980;2023-08-31T05:02:44;31.57;;;27.50;;
29200;SDS011;16244;51.956;12.980;2023-08-31T05:05:12;34.07;;;30.90;;
29200;SDS011;16244;51.956;12.980;2023-08-31T05:07:39;40.73;;;36.93;;
29200;SDS011;16244;51.956;12.980;2023-08-31T05:10:09;51.13;;;46.60;;
29200;SDS011;16244;51.956;12.980;2023-08-31T05:12:37;39.00;;;34.90;;
29200;SDS011;16244;51.956;12.980;2023-08-31T05:15:05;48.37;;;43.83;;
29200;SDS011;16244;51.956;12.980;2023-08-31T05:17:34;33.93;;;30.90;;
29200;SDS011;16244;51.956;12.980;2023-08-31T05:20:01;33.57;;;30.17;;
29200;SDS011;16244;51.956;12.980;2023-08-31T05:22:30;41.80;;;38.00;;
29200;SDS011;16244;51.956;12.980;2023-08-31T05:24:57;38.17;;;34.47;;
29200;SDS011;16244;51.956;12.980;2023-08-31T05:27:27;44.93;;;41.03;;
29200;SDS011;16244;51.956;12.980;2023-08-31T05:29:55;39.17;;;35.47;;
29200;SDS011;16244;51.956;12.980;2023-08-31T05:32:22;50.60;;;46.10;;
29200;SDS011;16244;51.956;12.980;2023-08-31T05:34:50;34.83;;;31.53;;
29200;SDS011;16244;51.956;12.980;2023-08-31T05:37:17;39.63;;;35.93;;
29200;SDS011;16244;51.956;12.980;2023-08-31T05:39:47;29.77;;;25.93;;
29200;SDS011;16244;51.956;12.980;2023-08-31T05:42:15;35.40;;;32.90;;
29200;SDS011;16244;51.956;12.980;2023-08-31T05:44:43;35.77;;;32.17;;
29200;SDS011;16244;51.956;12.980;2023-08-31T05:47:11;37.60;;;34.33;;
29200;SDS011;16244;51.956;12.980;2023-08-31T05:49:39;48.17;;;44.07;;
29200;SDS011;16244;51.956;12.980;2023-08-31T05:52:10;41.77;;;37.97;;
29200;SDS011;16244;51.956;12.980;2023-08-31T05:54:37;30.67;;;27.93;;
29200;SDS011;16244;51.956;12.980;2023-08-31T05:57:05;24.63;;;21.90;;
29200;SDS011;16244;51.956;12.980;2023-08-31T05:59:32;35.70;;;32.23;;
29200;SDS011;16244;51.956;12.980;2023-08-31T06:02:01;29.43;;;26.33;;
29200;SDS011;16244;51.956;12.980;2023-08-31T06:04:30;46.33;;;42.60;;
29200;SDS011;16244;51.956;12.980;2023-08-31T06:06:58;26.53;;;23.87;;
29200;SDS011;16244;51.956;12.980;2023-08-31T06:09:25;30.90;;;28.07;;
29200;SDS011;16244;51.956;12.980;2023-08-31T06:11:53;28.47;;;25.73;;
29200;SDS011;16244;51.956;12.980;2023-08-31T06:14:20;26.67;;;24.20;;
29200;SDS011;16244;51.956;12.980;2023-08-31T06:16:47;31.77;;;28.50;;
29200;SDS011;16244;51.956;12.980;2023-08-31T06:19:16;27.73;;;24.97;;
29200;SDS011;16244;51.956;12.980;2023-08-31T06:21:44;27.43;;;24.97;;
29200;SDS011;16244;51.956;12.980;2023-08-31T06:24:12;27.50;;;25.20;;
29200;SDS011;16244;51.956;12.980;2023-08-31T06:26:40;31.37;;;28.53;;
29200;SDS011;16244;51.956;12.980;2023-08-31T06:29:08;32.67;;;28.13;;
29200;SDS011;16244;51.956;12.980;2023-08-31T06:31:36;30.23;;;27.00;;
29200;SDS011;16244;51.956;12.980;2023-08-31T06:34:04;26.63;;;23.83;;
29200;SDS011;16244;51.956;12.980;2023-08-31T06:36:32;31.60;;;28.67;;
29200;SDS011;16244;51.956;12.980;2023-08-31T06:39:00;28.57;;;26.17;;
29200;SDS011;16244;51.956;12.980;2023-08-31T06:41:28;26.00;;;23.67;;
29200;SDS011;16244;51.956;12.980;2023-08-31T06:43:56;23.50;;;19.90;;
29200;SDS011;16244;51.956;12.980;2023-08-31T06:46:23;35.00;;;31.50;;
29200;SDS011;16244;51.956;12.980;2023-08-31T06:48:51;28.73;;;25.90;;
29200;SDS011;16244;51.956;12.980;2023-08-31T06:51:19;41.80;;;38.30;;
29200;SDS011;16244;51.956;12.980;2023-08-31T06:53:47;28.43;;;25.60;;
29200;SDS011;16244;51.956;12.980;2023-08-31T06:56:15;40.07;;;36.57;;
29200;SDS011;16244;51.956;12.980;2023-08-31T06:58:42;21.00;;;19.00;;
29200;SDS011;16244;51.956;12.980;2023-08-31T07:01:12;20.77;;;18.83;;
29200;SDS011;16244;51.956;12.980;2023-08-31T07:03:40;21.67;;;19.57;;
29200;SDS011;16244;51.956;12.980;2023-08-31T07:06:07;28.17;;;25.33;;
29200;SDS011;16244;51.956;12.980;2023-08-31T07:08:35;20.63;;;18.63;;
29200;SDS011;16244;51.956;12.980;2023-08-31T07:11:04;24.57;;;22.77;;
29200;SDS011;16244;51.956;12.980;2023-08-31T07:13:31;24.43;;;21.03;;
29200;SDS011;16244;51.956;12.980;2023-08-31T07:15:59;16.57;;;15.07;;
29200;SDS011;16244;51.956;12.980;2023-08-31T07:18:26;16.33;;;14.73;;
29200;SDS011;16244;51.956;12.980;2023-08-31T07:20:54;13.67;;;12.50;;
29200;SDS011;16244;51.956;12.980;2023-08-31T07:23:21;14.00;;;12.90;;
29200;SDS011;16244;51.956;12.980;2023-08-31T07:25:48;18.80;;;17.10;;
29200;SDS011;16244;51.956;12.980;2023-08-31T07:28:17;11.63;;;10.53;;
29200;SDS011;16244;51.956;12.980;2023-08-31T07:30:45;11.37;;;10.70;;
29200;SDS011;16244;51.956;12.980;2023-08-31T07:33:13;11.47;;;10.63;;
29200;SDS011;16244;51.956;12.980;2023-08-31T07:35:40;11.77;;;11.00;;
29200;SDS011;16244;51.956;12.980;2023-08-31T07:38:07;7.90;;;7.30;;
29200;SDS011;16244;51.956;12.980;2023-08-31T07:40:35;7.50;;;7.03;;
29200;SDS011;16244;51.956;12.980;2023-08-31T07:43:03;9.93;;;5.23;;
29200;SDS011;16244;51.956;12.980;2023-08-31T07:45:32;7.80;;;7.23;;
29200;SDS011;16244;51.956;12.980;2023-08-31T07:47:59;5.53;;;5.00;;
29200;SDS011;16244;51.956;12.980;2023-08-31T07:50:27;4.53;;;4.23;;
29200;SDS011;16244;51.956;12.980;2023-08-31T07:52:54;5.80;;;3.87;;
29200;SDS011;16244;51.956;12.980;2023-08-31T07:55:21;3.17;;;2.43;;
29200;SDS011;16244;51.956;12.980;2023-08-31T07:57:49;2.10;;;1.60;;
29200;SDS011;16244;51.956;12.980;2023-08-31T08:00:17;4.73;;;4.30;;
29200;SDS011;16244;51.956;12.980;2023-08-31T08:02:46;3.77;;;3.57;;
29200;SDS011;16244;51.956;12.980;2023-08-31T08:05:13;2.87;;;2.67;;
29200;SDS011;16244;51.956;12.980;2023-08-31T08:07:41;2.83;;;2.73;;
29200;SDS011;16244;51.956;12.980;2023-08-31T08:10:09;1.43;;;1.43;;
29200;SDS011;16244;51.956;12.980;2023-08-31T08:12:37;2.00;;;2.00;;
29200;SDS011;16244;51.956;12.980;2023-08-31T08:15:05;1.50;;;1.50;;
29200;SDS011;16244;51.956;12.980;2023-08-31T08:17:33;2.10;;;2.00;;
29200;SDS011;16244;51.956;12.980;2023-08-31T08:20:03;8.60;;;1.53;;
29200;SDS011;16244;51.956;12.980;2023-08-31T08:22:32;3.33;;;1.42;;
29200;SDS011;16244;51.956;12.980;2023-08-31T08:24:59;1.63;;;1.63;;
29200;SDS011;16244;51.956;12.980;2023-08-31T08:27:26;1.17;;;1.17;;
29200;SDS011;16244;51.956;12.980;2023-08-31T08:29:54;1.10;;;1.10;;
29200;SDS011;16244;51.956;12.980;2023-08-31T08:32:21;4.00;;;2.70;;
29200;SDS011;16244;51.956;12.980;2023-08-31T08:34:49;1.47;;;1.47;;
29200;SDS011;16244;51.956;12.980;2023-08-31T08:37:18;1.57;;;1.47;;
29200;SDS011;16244;51.956;12.980;2023-08-31T08:39:47;3.23;;;2.47;;
29200;SDS011;16244;51.956;12.980;2023-08-31T08:42:15;5.23;;;2.20;;
29200;SDS011;16244;51.956;12.980;2023-08-31T08:44:45;1.43;;;1.30;;
29200;SDS011;16244;51.956;12.980;2023-08-31T08:47:13;1.37;;;1.07;;
29200;SDS011;16244;51.956;12.980;2023-08-31T08:49:42;1.80;;;1.70;;
29200;SDS011;16244;51.956;12.980;2023-08-31T08:52:10;1.00;;;0.90;;
29200;SDS011;16244;51.956;12.980;2023-08-31T08:54:40;2.40;;;2.30;;
29200;SDS011;16244;51.956;12.980;2023-08-31T08:57:07;1.13;;;1.13;;
29200;SDS011;16244;51.956;12.980;2023-08-31T08:59:34;2.97;;;0.60;;
29200;SDS011;16244;51.956;12.980;2023-08-31T09:02:02;1.20;;;0.70;;
29200;SDS011;16244;51.956;12.980;2023-08-31T09:04:30;1.13;;;1.13;;
29200;SDS011;16244;51.956;12.980;2023-08-31T09:06:57;1.23;;;0.77;;
29200;SDS011;16244;51.956;12.980;2023-08-31T09:09:25;1.73;;;0.97;;
29200;SDS011;16244;51.956;12.980;2023-08-31T09:11:54;0.70;;;0.70;;
29200;SDS011;16244;51.956;12.980;2023-08-31T09:14:22;0.80;;;0.80;;
29200;SDS011;16244;51.956;12.980;2023-08-31T09:16:50;1.77;;;0.80;;
29200;SDS011;16244;51.956;12.980;2023-08-31T09:19:19;1.00;;;0.70;;
29200;SDS011;16244;51.956;12.980;2023-08-31T09:21:48;1.27;;;1.20;;
29200;SDS011;16244;51.956;12.980;2023-08-31T09:24:16;1.20;;;1.10;;
29200;SDS011;16244;51.956;12.980;2023-08-31T09:26:44;1.10;;;0.60;;
29200;SDS011;16244;51.956;12.980;2023-08-31T09:29:13;1.90;;;0.70;;
29200;SDS011;16244;51.956;12.980;2023-08-31T09:31:41;1.43;;;0.50;;
29200;SDS011;16244;51.956;12.980;2023-08-31T09:34:10;1.17;;;0.80;;
29200;SDS011;16244;51.956;12.980;2023-08-31T09:36:38;0.50;;;0.50;;
29200;SDS011;16244;51.956;12.980;2023-08-31T09:39:06;2.57;;;0.50;;
29200;SDS011;16244;51.956;12.980;2023-08-31T09:41:34;2.40;;;0.77;;
29200;SDS011;16244;51.956;12.980;2023-08-31T09:44:15;0.97;;;0.50;;
29200;SDS011;16244;51.956;12.980;2023-08-31T09:46:46;1.60;;;1.00;;
29200;SDS011;16244;51.956;12.980;2023-08-31T09:49:14;0.60;;;0.60;;
29200;SDS011;16244;51.956;12.980;2023-08-31T09:51:43;0.60;;;0.60;;
29200;SDS011;16244;51.956;12.980;2023-08-31T09:54:13;0.90;;;0.60;;
29200;SDS011;16244;51.956;12.980;2023-08-31T09:56:41;0.60;;;0.60;;
29200;SDS011;16244;51.956;12.980;2023-08-31T09:59:10;2.77;;;0.60;;
29200;SDS011;16244;51.956;12.980;2023-08-31T10:01:40;0.60;;;0.60;;
29200;SDS011;16244;51.956;12.980;2023-08-31T10:04:09;0.57;;;0.50;;
29200;SDS011;16244;51.956;12.980;2023-08-31T10:06:38;0.50;;;0.50;;
29200;SDS011;16244;51.956;12.980;2023-08-31T10:09:06;0.90;;;0.90;;
29200;SDS011;16244;51.956;12.980;2023-08-31T10:11:35;0.80;;;0.80;;
29200;SDS011;16244;51.956;12.980;2023-08-31T10:14:04;1.00;;;0.50;;
29200;SDS011;16244;51.956;12.980;2023-08-31T10:16:32;1.00;;;0.77;;
29200;SDS011;16244;51.956;12.980;2023-08-31T10:19:01;0.60;;;0.60;;
29200;SDS011;16244;51.956;12.980;2023-08-31T10:21:29;0.60;;;0.60;;
29200;SDS011;16244;51.956;12.980;2023-08-31T10:23:57;0.50;;;0.50;;
29200;SDS011;16244;51.956;12.980;2023-08-31T10:26:25;0.50;;;0.40;;
29200;SDS011;16244;51.956;12.980;2023-08-31T10:28:53;0.50;;;0.43;;
29200;SDS011;16244;51.956;12.980;2023-08-31T10:31:21;0.70;;;0.50;;
29200;SDS011;16244;51.956;12.980;2023-08-31T10:33:54;0.50;;;0.40;;
29200;SDS011;16244;51.956;12.980;2023-08-31T10:36:36;0.80;;;0.50;;
29200;SDS011;16244;51.956;12.980;2023-08-31T10:39:05;0.50;;;0.50;;
29200;SDS011;16244;51.956;12.980;2023-08-31T10:41:38;0.60;;;0.60;;
29200;SDS011;16244;51.956;12.980;2023-08-31T10:44:19;0.60;;;0.60;;
29200;SDS011;16244;51.956;12.980;2023-08-31T10:46:48;0.50;;;0.50;;
29200;SDS011;16244;51.956;12.980;2023-08-31T10:49:16;1.70;;;0.60;;
29200;SDS011;16244;51.956;12.980;2023-08-31T10:51:47;0.60;;;0.60;;
29200;SDS011;16244;51.956;12.980;2023-08-31T10:54:19;1.23;;;0.67;;
29200;SDS011;16244;51.956;12.980;2023-08-31T10:56:55;0.67;;;0.60;;
29200;SDS011;16244;51.956;12.980;2023-08-31T10:59:42;1.60;;;1.50;;
29200;SDS011;16244;51.956;12.980;2023-08-31T11:02:29;2.97;;;1.20;;
29200;SDS011;16244;51.956;12.980;2023-08-31T11:05:01;0.90;;;0.90;;
29200;SDS011;16244;51.956;12.980;2023-08-31T11:07:37;1.13;;;0.70;;
29200;SDS011;16244;51.956;12.980;2023-08-31T11:10:08;1.30;;;0.80;;
29200;SDS011;16244;51.956;12.980;2023-08-31T11:12:38;1.13;;;1.10;;
29200;SDS011;16244;51.956;12.980;2023-08-31T11:15:05;2.30;;;1.10;;
29200;SDS011;16244;51.956;12.980;2023-08-31T11:17:33;0.73;;;0.73;;
29200;SDS011;16244;51.956;12.980;2023-08-31T11:20:01;0.70;;;0.70;;
29200;SDS011;16244;51.956;12.980;2023-08-31T11:22:31;0.73;;;0.73;;
29200;SDS011;16244;51.956;12.980;2023-08-31T11:25:01;1.10;;;0.70;;
29200;SDS011;16244;51.956;12.980;2023-08-31T11:27:29;0.60;;;0.60;;
29200;SDS011;16244;51.956;12.980;2023-08-31T11:29:56;0.70;;;0.70;;
29200;SDS011;16244;51.956;12.980;2023-08-31T11:32:24;1.67;;;1.03;;
29200;SDS011;16244;51.956;12.980;2023-08-31T11:34:51;0.90;;;0.90;;
29200;SDS011;16244;51.956;12.980;2023-08-31T11:37:19;0.70;;;0.70;;
29200;SDS011;16244;51.956;12.980;2023-08-31T11:39:50;2.03;;;1.53;;
29200;SDS011;16244;51.956;12.980;2023-08-31T11:42:19;0.93;;;0.83;;
29200;SDS011;16244;51.956;12.980;2023-08-31T11:44:48;0.50;;;0.50;;
29200;SDS011;16244;51.956;12.980;2023-08-31T11:47:17;0.73;;;0.73;;
29200;SDS011;16244;51.956;12.980;2023-08-31T11:49:46;0.70;;;0.60;;
29200;SDS011;16244;51.956;12.980;2023-08-31T11:52:14;5.20;;;0.70;;
29200;SDS011;16244;51.956;12.980;2023-08-31T11:54:42;1.03;;;0.67;;
29200;SDS011;16244;51.956;12.980;2023-08-31T11:57:11;1.00;;;1.00;;
29200;SDS011;16244;51.956;12.980;2023-08-31T11:59:41;1.10;;;0.80;;
29200;SDS011;16244;51.956;12.980;2023-08-31T12:02:09;0.80;;;0.70;;
29200;SDS011;16244;51.956;12.980;2023-08-31T12:04:43;0.70;;;0.70;;
29200;SDS011;16244;51.956;12.980;2023-08-31T12:07:11;4.30;;;0.70;;
29200;SDS011;16244;51.956;12.980;2023-08-31T12:09:42;2.10;;;0.90;;
29200;SDS011;16244;51.956;12.980;2023-08-31T12:12:12;1.13;;;0.70;;
29200;SDS011;16244;51.956;12.980;2023-08-31T12:14:43;0.87;;;0.87;;
29200;SDS011;16244;51.956;12.980;2023-08-31T12:17:10;1.00;;;0.60;;
29200;SDS011;16244;51.956;12.980;2023-08-31T12:19:38;1.03;;;1.03;;
29200;SDS011;16244;51.956;12.980;2023-08-31T12:22:06;0.77;;;0.77;;
29200;SDS011;16244;51.956;12.980;2023-08-31T12:24:38;1.00;;;1.00;;
29200;SDS011;16244;51.956;12.980;2023-08-31T12:27:06;1.00;;;1.00;;
29200;SDS011;16244;51.956;12.980;2023-08-31T12:29:33;3.53;;;1.30;;
29200;SDS011;16244;51.956;12.980;2023-08-31T12:32:03;0.60;;;0.60;;
29200;SDS011;16244;51.956;12.980;2023-08-31T12:34:30;3.23;;;2.10;;
29200;SDS011;16244;51.956;12.980;2023-08-31T12:36:58;1.10;;;1.10;;
29200;SDS011;16244;51.956;12.980;2023-08-31T12:39:28;1.57;;;1.47;;
29200;SDS011;16244;51.956;12.980;2023-08-31T12:41:55;2.37;;;2.27;;
29200;SDS011;16244;51.956;12.980;2023-08-31T12:44:23;1.00;;;0.90;;
29200;SDS011;16244;51.956;12.980;2023-08-31T12:46:51;0.97;;;0.87;;
29200;SDS011;16244;51.956;12.980;2023-08-31T12:49:20;0.50;;;0.50;;
29200;SDS011;16244;51.956;12.980;2023-08-31T12:51:49;0.60;;;0.60;;
29200;SDS011;16244;51.956;12.980;2023-08-31T12:54:17;1.30;;;1.30;;
29200;SDS011;16244;51.956;12.980;2023-08-31T12:56:45;0.70;;;0.57;;
29200;SDS011;16244;51.956;12.980;2023-08-31T12:59:12;0.60;;;0.60;;
29200;SDS011;16244;51.956;12.980;2023-08-31T13:01:39;1.33;;;0.47;;
29200;SDS011;16244;51.956;12.980;2023-08-31T13:04:07;0.70;;;0.70;;
29200;SDS011;16244;51.956;12.980;2023-08-31T13:06:35;3.60;;;0.63;;
29200;SDS011;16244;51.956;12.980;2023-08-31T13:09:03;0.50;;;0.50;;
29200;SDS011;16244;51.956;12.980;2023-08-31T13:11:34;3.20;;;3.00;;
29200;SDS011;16244;51.956;12.980;2023-08-31T13:14:02;0.93;;;0.70;;
29200;SDS011;16244;51.956;12.980;2023-08-31T13:16:29;0.93;;;0.77;;
29200;SDS011;16244;51.956;12.980;2023-08-31T13:18:58;1.08;;;0.80;;
29200;SDS011;16244;51.956;12.980;2023-08-31T13:21:26;0.87;;;0.87;;
29200;SDS011;16244;51.956;12.980;2023-08-31T13:23:55;0.70;;;0.70;;
29200;SDS011;16244;51.956;12.980;2023-08-31T13:26:23;0.83;;;0.60;;
29200;SDS011;16244;51.956;12.980;2023-08-31T13:28:50;1.17;;;1.17;;
29200;SDS011;16244;51.956;12.980;2023-08-31T13:31:18;1.37;;;0.70;;
29200;SDS011;16244;51.956;12.980;2023-08-31T13:33:46;1.03;;;1.03;;
29200;SDS011;16244;51.956;12.980;2023-08-31T13:36:14;1.10;;;0.90;;
29200;SDS011;16244;51.956;12.980;2023-08-31T13:38:41;0.90;;;0.90;;
29200;SDS011;16244;51.956;12.980;2023-08-31T13:41:10;0.80;;;0.63;;
29200;SDS011;16244;51.956;12.980;2023-08-31T13:43:37;0.50;;;0.50;;
29200;SDS011;16244;51.956;12.980;2023-08-31T13:46:05;0.93;;;0.70;;
29200;SDS011;16244;51.956;12.980;2023-08-31T13:48:32;0.50;;;0.50;;
29200;SDS011;16244;51.956;12.980;2023-08-31T13:51:00;1.80;;;1.00;;
29200;SDS011;16244;51.956;12.980;2023-08-31T13:53:27;1.10;;;0.50;;
29200;SDS011;16244;51.956;12.980;2023-08-31T13:55:54;0.60;;;0.60;;
29200;SDS011;16244;51.956;12.980;2023-08-31T13:58:23;1.07;;;0.87;;
29200;SDS011;16244;51.956;12.980;2023-08-31T14:00:51;0.80;;;0.53;;
29200;SDS011;16244;51.956;12.980;2023-08-31T14:03:19;0.50;;;0.50;;
29200;SDS011;16244;51.956;12.980;2023-08-31T14:05:47;0.87;;;0.50;;
29200;SDS011;16244;51.956;12.980;2023-08-31T14:08:15;0.60;;;0.60;;
29200;SDS011;16244;51.956;12.980;2023-08-31T14:10:43;1.10;;;0.60;;
29200;SDS011;16244;51.956;12.980;2023-08-31T14:13:11;5.37;;;2.30;;
29200;SDS011;16244;51.956;12.980;2023-08-31T14:15:39;1.57;;;0.80;;
29200;SDS011;16244;51.956;12.980;2023-08-31T14:18:12;1.17;;;1.17;;
29200;SDS011;16244;51.956;12.980;2023-08-31T14:20:40;0.63;;;0.63;;
29200;SDS011;16244;51.956;12.980;2023-08-31T14:23:08;1.03;;;1.03;;
29200;SDS011;16244;51.956;12.980;2023-08-31T14:25:35;2.00;;;0.70;;
29200;SDS011;16244;51.956;12.980;2023-08-31T14:28:04;1.40;;;1.33;;